Time;durP1;ratioP1;P1;durP2;ratioP2;P2;SDS_P1;SDS_P2;PMS_P1;PMS_P2;Temp;Humidity;BMP_temperature;BMP_pressure;BME280_temperature;BME280_humidity;BME280_pressure;Samples;Min_cycle;Max_cycle;Signal;HPM_P1;HPM_P2
2024/03/18 00:00:17;;;;;;;11.43;6.93;;;;;;;14.78;61.73;101502.72;4877943;28;118398;-82
2024/03/18 00:02:44;;;;;;;10.13;7.18;;;;;;;14.79;61.42;101501.81;4890940;28;122489;-81
2024/03/18 00:05:12;;;;;;;11.55;7.10;;;;;;;14.80;61.63;101503.50;4903669;28;122287;-80
2024/03/18 00:07:39;;;;;;;10.57;6.93;;;;;;;14.82;61.71;101498.97;4910103;28;119081;-82
2024/03/18 00:10:09;;;;;;;12.43;7.03;;;;;;;14.83;61.73;101500.69;4890759;28;117721;-81
2024/03/18 00:12:43;;;;;;;10.43;7.18;;;;;;;14.82;61.69;101498.97;4889605;28;124322;-83
2024/03/18 00:15:13;;;;;;;11.07;7.43;;;;;;;14.83;61.60;101503.38;4906942;28;121906;-80
2024/03/18 00:17:40;;;;;;;10.77;7.30;;;;;;;14.83;61.62;101484.69;4881926;28;118903;-81
2024/03/18 00:20:10;;;;;;;11.98;6.95;;;;;;;14.81;61.65;101491.91;4887877;28;118090;-82
2024/03/18 00:22:37;;;;;;;12.27;7.63;;;;;;;14.80;61.63;101495.50;4908041;28;122175;-79
2024/03/18 00:25:05;;;;;;;11.32;7.60;;;;;;;14.79;61.69;101488.47;4893666;28;124938;-80
2024/03/18 00:27:31;;;;;;;12.68;7.85;;;;;;;14.78;61.88;101497.41;4905998;28;119693;-80
2024/03/18 00:29:59;;;;;;;9.40;7.70;;;;;;;14.79;62.01;101488.47;4879956;28;118034;-79
2024/03/18 00:32:25;;;;;;;9.77;7.55;;;;;;;14.80;61.85;101492.84;4873429;28;123602;-80
2024/03/18 00:34:51;;;;;;;11.50;7.30;;;;;;;14.80;62.01;101490.19;4878746;28;123225;-80
2024/03/18 00:37:18;;;;;;;10.85;7.07;;;;;;;14.85;61.89;101487.28;4880944;28;118885;-79
2024/03/18 00:39:45;;;;;;;11.93;7.80;;;;;;;14.86;61.92;101489.88;4901651;28;119430;-81
2024/03/18 00:42:11;;;;;;;13.45;7.47;;;;;;;14.86;61.93;101489.88;4902517;28;125515;-81
2024/03/18 00:44:37;;;;;;;11.43;8.35;;;;;;;14.86;61.85;101500.56;4885444;28;123002;-78
2024/03/18 00:47:04;;;;;;;14.65;7.78;;;;;;;14.86;62.07;101481.88;4885433;28;119972;-79
2024/03/18 00:49:30;;;;;;;18.70;8.60;;;;;;;14.86;62.04;101479.22;4899717;28;117904;-81
2024/03/18 00:51:56;;;;;;;14.27;8.13;;;;;;;14.86;62.19;101478.31;4886727;28;123567;-80
2024/03/18 00:54:23;;;;;;;11.32;7.97;;;;;;;14.85;62.29;101466.81;4893050;28;124493;-80
2024/03/18 00:56:50;;;;;;;13.27;7.95;;;;;;;14.86;62.27;101465.88;4891578;28;118355;-80
2024/03/18 00:59:17;;;;;;;11.98;8.43;;;;;;;14.86;62.25;101473.88;4899819;28;117950;-81
2024/03/18 01:01:43;;;;;;;13.48;8.07;;;;;;;14.88;62.20;101477.31;4887343;28;122528;-81
2024/03/18 01:04:10;;;;;;;13.82;8.93;;;;;;;14.88;62.27;101472.00;4909683;28;123220;-81
2024/03/18 01:06:36;;;;;;;11.32;7.75;;;;;;;14.90;62.57;101470.09;4893584;28;118807;-80
2024/03/18 01:09:04;;;;;;;13.07;8.38;;;;;;;14.90;62.47;101470.09;4892972;28;119994;-80
2024/03/18 01:11:30;;;;;;;10.80;7.85;;;;;;;14.93;62.40;101469.91;4903020;28;123124;-80
2024/03/18 01:13:57;;;;;;;14.77;8.70;;;;;;;14.94;62.53;101470.81;4904502;28;124756;-79
2024/03/18 01:16:26;;;;;;;12.95;8.18;;;;;;;14.95;62.74;101459.16;4872359;28;120207;-82
2024/03/18 01:18:54;;;;;;;13.65;8.10;;;;;;;14.96;62.57;101464.44;4879458;28;118292;-81
2024/03/18 01:21:21;;;;;;;12.02;7.78;;;;;;;14.98;62.82;101472.34;4921509;28;124171;-82
2024/03/18 01:23:48;;;;;;;14.18;7.82;;;;;;;15.01;62.86;101465.97;4907550;28;122863;-80
2024/03/18 01:26:14;;;;;;;16.60;8.50;;;;;;;15.02;62.54;101454.38;4875986;28;119537;-81
2024/03/18 01:28:41;;;;;;;11.80;8.25;;;;;;;15.03;62.59;101458.75;4894282;28;119363;-81
2024/03/18 01:31:07;;;;;;;12.38;7.70;;;;;;;15.04;62.46;101460.50;4897555;28;123444;-81
2024/03/18 01:33:34;;;;;;;11.88;7.68;;;;;;;15.04;62.70;101465.84;4892979;28;123616;-81
2024/03/18 01:36:00;;;;;;;10.13;7.50;;;;;;;15.05;62.76;101457.75;4909201;28;119047;-81
2024/03/18 01:38:28;;;;;;;13.32;9.00;;;;;;;15.05;62.79;101457.75;4894722;28;118343;-81
2024/03/18 01:40:56;;;;;;;12.98;8.50;;;;;;;15.07;62.82;101461.19;4905420;28;122623;-80
2024/03/18 01:43:23;;;;;;;11.70;7.78;;;;;;;15.08;62.62;101456.72;4911521;28;123099;-80
2024/03/18 01:45:49;;;;;;;11.80;7.80;;;;;;;15.09;62.95;101453.97;4891466;28;119741;-81
2024/03/18 01:48:16;;;;;;;14.02;8.10;;;;;;;15.11;62.93;101440.56;4905373;28;118513;-82
2024/03/18 01:50:43;;;;;;;13.23;8.15;;;;;;;15.11;62.96;101446.75;4908472;28;124525;-83
2024/03/18 01:53:13;;;;;;;11.95;7.32;;;;;;;15.11;63.03;101445.88;4907648;28;124469;-82
2024/03/18 01:55:41;;;;;;;11.65;7.50;;;;;;;15.12;62.89;101442.25;4905072;28;118719;-83
2024/03/18 01:58:08;;;;;;;11.52;8.05;;;;;;;15.13;63.00;101449.34;4912146;28;118144;-81
2024/03/18 02:00:38;;;;;;;11.25;7.35;;;;;;;15.13;63.02;101449.34;4914057;28;124133;-83
2024/03/18 02:03:09;;;;;;;15.52;7.90;;;;;;;15.15;63.13;101452.78;4903406;28;123439;-81
2024/03/18 02:05:37;;;;;;;10.32;7.22;;;;;;;15.16;62.83;101449.13;4902904;28;120162;-82
2024/03/18 02:08:05;;;;;;;11.95;7.32;;;;;;;15.16;63.10;101451.81;4902806;28;118006;-80
2024/03/18 02:10:31;;;;;;;11.07;7.50;;;;;;;15.17;63.03;101445.53;4890401;28;123263;-82
2024/03/18 02:13:02;;;;;;;12.43;7.80;;;;;;;15.17;63.23;101446.41;4906535;28;126498;-81
2024/03/18 02:15:30;;;;;;;10.98;7.25;;;;;;;15.18;63.10;101441.91;4893838;28;119899;-81
2024/03/18 02:17:57;;;;;;;9.52;7.10;;;;;;;15.19;63.17;101439.16;4888258;28;120034;-80
2024/03/18 02:20:24;;;;;;;9.88;7.82;;;;;;;15.20;63.04;101440.06;4904962;28;125026;-82
2024/03/18 02:22:51;;;;;;;10.80;7.80;;;;;;;15.18;63.15;101431.25;4904997;28;123295;-81
2024/03/18 02:25:19;;;;;;;12.30;7.60;;;;;;;15.18;63.04;101431.25;4903479;28;119878;-79
2024/03/18 02:27:45;;;;;;;10.88;7.72;;;;;;;15.18;63.31;101420.56;4889163;28;117675;-81
2024/03/18 02:30:13;;;;;;;12.38;7.90;;;;;;;15.20;63.23;101426.72;4872045;28;123717;-80
2024/03/18 02:32:41;;;;;;;11.13;7.88;;;;;;;15.21;63.36;101425.75;4907967;28;123761;-81
2024/03/18 02:35:18;;;;;;;10.25;8.02;;;;;;;15.22;63.22;101422.16;4890769;28;117444;-82
2024/03/18 02:37:45;;;;;;;10.95;7.20;;;;;;;15.24;63.23;101414.91;4890866;28;117918;-81
2024/03/18 02:40:12;;;;;;;12.95;7.80;;;;;;;15.24;63.20;101409.56;4907085;28;123318;-81
2024/03/18 02:42:41;;;;;;;11.90;7.97;;;;;;;15.25;63.06;101405.94;4891469;28;123522;-83
2024/03/18 02:45:09;;;;;;;12.32;8.07;;;;;;;15.26;63.25;101413.03;4895152;28;118653;-81
2024/03/18 02:47:40;;;;;;;13.43;9.02;;;;;;;15.27;63.13;101412.06;4885998;28;118331;-82
2024/03/18 02:50:07;;;;;;;9.38;7.55;;;;;;;15.28;63.12;101408.44;4875558;28;123804;-83
2024/03/18 02:52:37;;;;;;;10.90;7.40;;;;;;;15.29;63.01;101401.31;4893605;28;123023;-82
2024/03/18 02:55:04;;;;;;;11.00;7.32;;;;;;;15.29;63.00;101394.16;4900389;28;120538;-82
2024/03/18 02:57:31;;;;;;;10.02;7.55;;;;;;;15.29;62.98;101391.47;4899857;28;119388;-81
2024/03/18 02:59:57;;;;;;;9.77;7.95;;;;;;;15.30;62.97;101392.34;4888235;28;123473;-81
2024/03/18 03:02:23;;;;;;;9.93;7.50;;;;;;;15.28;62.88;101389.78;4904689;28;124230;-82
2024/03/18 03:04:49;;;;;;;12.00;8.00;;;;;;;15.28;62.90;101389.78;4885905;28;117662;-82
2024/03/18 03:07:16;;;;;;;10.98;7.20;;;;;;;15.27;62.85;101388.03;4888338;28;117595;-81
2024/03/18 03:09:43;;;;;;;9.90;7.82;;;;;;;15.28;62.78;101383.59;4873534;28;124501;-81
2024/03/18 03:12:09;;;;;;;14.23;8.20;;;;;;;15.26;62.83;101386.34;4901703;28;123393;-81
2024/03/18 03:14:35;;;;;;;11.68;7.68;;;;;;;15.24;62.73;101377.56;4900193;28;119586;-81
2024/03/18 03:17:02;;;;;;;11.38;7.53;;;;;;;15.23;62.66;101386.50;4891480;28;118284;-80
2024/03/18 03:19:28;;;;;;;11.75;7.97;;;;;;;15.23;62.83;101386.50;4907327;28;124423;-82
2024/03/18 03:21:54;;;;;;;11.05;8.38;;;;;;;15.21;62.99;101383.03;4880528;28;122919;-83
2024/03/18 03:24:21;;;;;;;11.35;8.18;;;;;;;15.21;62.78;101376.84;4905519;28;117994;-80
2024/03/18 03:26:47;;;;;;;10.88;7.60;;;;;;;15.20;62.79;101389.34;4891304;28;117195;-82
2024/03/18 03:29:13;;;;;;;10.13;7.70;;;;;;;15.20;62.85;101381.34;4905637;28;124400;-82
2024/03/18 03:31:40;;;;;;;11.07;8.02;;;;;;;15.19;63.01;101385.78;4909828;28;122516;-81
2024/03/18 03:34:06;;;;;;;14.13;8.32;;;;;;;15.18;62.89;101377.88;4908339;28;119522;-81
2024/03/18 03:36:34;;;;;;;11.15;8.00;;;;;;;15.19;62.81;101384.94;4907592;28;119648;-81
2024/03/18 03:39:01;;;;;;;12.82;8.25;;;;;;;15.16;62.87;101396.66;4901860;28;123215;-82
2024/03/18 03:41:27;;;;;;;12.27;8.40;;;;;;;15.13;62.94;101395.97;4903245;28;123007;-81
2024/03/18 03:43:53;;;;;;;11.70;8.32;;;;;;;15.10;63.05;101385.47;4898410;28;119842;-81
2024/03/18 03:46:20;;;;;;;14.27;7.85;;;;;;;15.10;62.99;101385.47;4904206;28;119704;-81
2024/03/18 03:48:46;;;;;;;10.98;8.10;;;;;;;15.10;62.82;101385.47;4902943;28;123686;-81
2024/03/18 03:51:12;;;;;;;13.98;8.13;;;;;;;15.10;62.80;101393.47;4886480;28;123719;-81
2024/03/18 03:53:39;;;;;;;13.15;8.23;;;;;;;15.07;63.02;101390.94;4879936;28;117719;-82
2024/03/18 03:56:05;;;;;;;11.27;7.93;;;;;;;15.07;62.98;101390.94;4885754;28;119601;-82
2024/03/18 03:58:33;;;;;;;12.32;8.73;;;;;;;15.06;63.18;101383.91;4885820;28;123159;-82
2024/03/18 04:01:00;;;;;;;11.20;8.68;;;;;;;15.06;62.90;101389.25;4900305;28;124284;-81
2024/03/18 04:03:27;;;;;;;11.48;8.48;;;;;;;15.03;63.28;101384.94;4888709;28;118456;-81
2024/03/18 04:05:56;;;;;;;13.88;8.13;;;;;;;15.03;63.26;101389.41;4913211;28;118276;-81
2024/03/18 04:08:23;;;;;;;11.05;8.20;;;;;;;15.02;63.25;101387.69;4893223;28;122430;-81
2024/03/18 04:10:50;;;;;;;13.88;8.63;;;;;;;15.03;63.25;101389.41;4890379;28;123938;-80
2024/03/18 04:13:17;;;;;;;12.25;8.77;;;;;;;15.02;63.25;101387.69;4888756;28;117838;-82
2024/03/18 04:15:44;;;;;;;13.60;9.10;;;;;;;15.01;63.44;101386.81;4906656;28;116747;-82
2024/03/18 04:18:11;;;;;;;13.52;9.20;;;;;;;15.01;63.39;101381.47;4900776;28;123037;-81
2024/03/18 04:20:37;;;;;;;13.07;9.15;;;;;;;15.01;63.41;101391.28;4903135;28;125499;-82
2024/03/18 04:23:05;;;;;;;15.07;9.52;;;;;;;15.01;63.37;101392.16;4907457;28;119656;-82
2024/03/18 04:25:34;;;;;;;15.52;9.40;;;;;;;15.01;63.50;101391.28;4890263;28;117063;-82
2024/03/18 04:28:07;;;;;;;15.30;10.02;;;;;;;15.01;63.58;101385.97;4896847;28;123199;-81
2024/03/18 04:30:35;;;;;;;14.23;9.57;;;;;;;15.01;63.51;101386.81;4910790;28;123315;-81
2024/03/18 04:33:01;;;;;;;14.60;9.77;;;;;;;15.01;63.51;101391.28;4908221;28;119553;-83
2024/03/18 04:35:28;;;;;;;15.13;9.63;;;;;;;15.02;63.67;101382.34;4902251;28;117845;-82
2024/03/18 04:37:58;;;;;;;15.00;9.15;;;;;;;15.03;63.87;101384.06;4904264;28;122610;-82
2024/03/18 04:40:26;;;;;;;15.77;9.77;;;;;;;15.03;63.70;101390.28;4908541;28;123974;-82
2024/03/18 04:42:56;;;;;;;16.27;9.30;;;;;;;15.03;63.59;101389.41;4887933;28;120142;-81
2024/03/18 04:45:22;;;;;;;14.02;10.32;;;;;;;15.05;63.73;101387.50;4886241;28;117917;-84
2024/03/18 04:47:50;;;;;;;14.10;9.52;;;;;;;15.05;63.75;101392.84;4872376;28;123985;-83
2024/03/18 04:50:22;;;;;;;13.60;11.45;;;;;;;15.06;63.65;101387.44;4910063;28;123241;-84
2024/03/18 04:52:50;;;;;;;14.80;10.10;;;;;;;15.07;63.74;101394.50;4896297;28;117918;-83
2024/03/18 04:55:17;;;;;;;15.40;9.70;;;;;;;15.08;63.54;101392.69;4888964;28;118112;-83
2024/03/18 04:57:44;;;;;;;14.60;10.27;;;;;;;15.09;63.65;101405.09;4905485;28;123433;-83
2024/03/18 05:00:14;;;;;;;17.55;10.38;;;;;;;15.08;63.76;101403.34;4902913;28;123274;-85
2024/03/18 05:02:44;;;;;;;14.80;10.45;;;;;;;15.09;63.71;101405.09;4909580;28;118790;-85
2024/03/18 05:05:12;;;;;;;17.23;10.18;;;;;;;15.11;63.74;101400.53;4923176;28;119219;-86
2024/03/18 05:07:39;;;;;;;14.52;11.10;;;;;;;15.11;63.75;101397.88;4898597;28;123455;-86
2024/03/18 05:10:07;;;;;;;19.20;11.30;;;;;;;15.11;63.86;101400.53;4902572;28;122250;-86
2024/03/18 05:12:34;;;;;;;13.75;9.05;;;;;;;15.13;63.84;101403.97;4893573;28;118902;-86
2024/03/18 05:15:00;;;;;;;16.85;10.70;;;;;;;15.12;63.84;101411.09;4910795;28;119802;-85
2024/03/18 05:17:27;;;;;;;15.90;10.50;;;;;;;15.13;63.81;101406.63;4922666;28;123183;-86
2024/03/18 05:19:55;;;;;;;16.33;10.57;;;;;;;15.14;63.87;101413.69;4912495;28;123343;-87
2024/03/18 05:22:22;;;;;;;17.38;12.10;;;;;;;15.14;63.85;101413.69;4923526;28;119333;-86
2024/03/18 05:24:48;;;;;;;14.38;11.20;;;;;;;15.12;63.80;101405.75;4921289;28;119231;-86
2024/03/18 05:27:17;;;;;;;15.90;11.68;;;;;;;15.12;63.83;101404.91;4919314;28;123167;-87
2024/03/18 05:29:44;;;;;;;17.90;11.90;;;;;;;15.12;63.92;101407.56;4913762;28;123703;-85
2024/03/18 05:32:14;;;;;;;17.30;12.45;;;;;;;15.12;63.92;101404.91;4905973;28;117687;-83
2024/03/18 05:34:43;;;;;;;13.75;10.70;;;;;;;15.13;63.70;101417.31;4904915;28;119051;-85
2024/03/18 05:37:09;;;;;;;14.35;11.07;;;;;;;15.13;63.95;101417.31;4895483;28;123141;-82
2024/03/18 05:39:37;;;;;;;19.05;11.70;;;;;;;15.14;63.57;101424.34;4905462;28;122555;-82
2024/03/18 05:42:05;;;;;;;16.95;11.43;;;;;;;15.15;64.00;101420.75;4896029;28;117570;-86
2024/03/18 05:44:31;;;;;;;15.27;10.82;;;;;;;15.13;63.88;101417.31;4903343;28;117437;-84
2024/03/18 05:46:59;;;;;;;18.75;11.32;;;;;;;15.15;63.89;101415.41;4907255;28;125750;-86
2024/03/18 05:49:25;;;;;;;17.15;12.07;;;;;;;15.15;63.88;101410.09;4920150;28;122238;-86
2024/03/18 05:51:52;;;;;;;15.52;11.70;;;;;;;15.15;63.92;101415.41;4911418;28;118788;-85
2024/03/18 05:54:19;;;;;;;20.77;12.10;;;;;;;15.15;63.89;101412.75;4909710;28;120280;-87
2024/03/18 05:56:45;;;;;;;22.60;12.52;;;;;;;15.17;63.90;101416.19;4919342;28;121966;-87
2024/03/18 05:59:11;;;;;;;18.48;12.70;;;;;;;15.17;63.90;101419.72;4926672;28;124978;-86
2024/03/18 06:01:39;;;;;;;19.92;12.93;;;;;;;15.17;63.81;101414.38;4930920;28;119951;-86
2024/03/18 06:04:06;;;;;;;18.17;12.70;;;;;;;15.18;63.87;101420.56;4916889;28;119271;-87
2024/03/18 06:06:33;;;;;;;20.83;13.45;;;;;;;15.19;63.74;101416.97;4910478;28;123483;-84
2024/03/18 06:09:01;;;;;;;20.23;13.90;;;;;;;15.17;63.95;101416.19;4924366;28;124567;-86
2024/03/18 06:11:28;;;;;;;22.42;14.10;;;;;;;15.17;63.94;101416.19;4920265;28;119422;-86
2024/03/18 06:13:55;;;;;;;20.05;13.27;;;;;;;15.18;63.78;101417.91;4905577;28;118626;-86
2024/03/18 06:16:21;;;;;;;16.83;11.45;;;;;;;15.19;63.95;101414.28;4906400;28;123254;-85
2024/03/18 06:18:49;;;;;;;17.27;11.07;;;;;;;15.21;63.95;101420.41;4908651;28;123140;-83
2024/03/18 06:21:18;;;;;;;19.10;11.65;;;;;;;15.22;64.08;101424.81;4897719;28;118562;-83
2024/03/18 06:23:55;;;;;;;16.58;11.73;;;;;;;15.24;63.91;101424.69;4895399;28;117362;-83
2024/03/18 06:26:21;;;;;;;17.33;11.70;;;;;;;15.25;63.82;101421.09;4881167;28;122170;-82
2024/03/18 06:28:48;;;;;;;18.30;11.68;;;;;;;15.25;63.98;101421.94;4907489;28;122082;-84
2024/03/18 06:31:14;;;;;;;22.05;12.73;;;;;;;15.25;63.81;101421.09;4909832;28;119102;-83
2024/03/18 06:33:43;;;;;;;18.55;12.15;;;;;;;15.25;64.06;101421.09;4891326;28;118491;-81
2024/03/18 06:36:10;;;;;;;21.52;12.93;;;;;;;15.26;63.99;101417.50;4893436;28;123414;-84
2024/03/18 06:38:38;;;;;;;18.13;12.90;;;;;;;15.28;63.83;101416.47;4902835;28;122781;-83
2024/03/18 06:41:05;;;;;;;20.20;13.43;;;;;;;15.29;64.22;101423.50;4915657;28;119625;-86
2024/03/18 06:43:32;;;;;;;17.55;12.45;;;;;;;15.32;64.09;101423.34;4876395;28;116963;-83
2024/03/18 06:45:58;;;;;;;20.70;12.65;;;;;;;15.33;64.05;101425.09;4905129;28;122786;-83
2024/03/18 06:48:25;;;;;;;21.92;13.30;;;;;;;15.37;64.14;101429.28;4905635;28;122492;-83
2024/03/18 06:50:52;;;;;;;21.08;13.20;;;;;;;15.41;64.27;101426.44;4901603;28;121006;-82
2024/03/18 06:53:18;;;;;;;21.92;14.20;;;;;;;15.44;64.13;101427.13;4880166;28;118680;-84
2024/03/18 06:55:45;;;;;;;17.95;13.32;;;;;;;15.47;64.12;101426.13;4887649;28;124538;-83
2024/03/18 06:58:11;;;;;;;20.88;12.93;;;;;;;15.50;63.98;101425.91;4892732;28;123177;-82
2024/03/18 07:00:38;;;;;;;17.02;12.13;;;;;;;15.55;64.36;101439.88;4899308;28;120670;-83
2024/03/18 07:03:05;;;;;;;18.13;11.82;;;;;;;15.58;64.23;101434.38;4902044;28;118480;-83
2024/03/18 07:05:31;;;;;;;17.35;12.57;;;;;;;15.58;64.04;101440.56;4882845;28;123684;-82
2024/03/18 07:07:58;;;;;;;11.82;6.43;;;;;;;15.59;64.04;101436.09;4897048;28;123176;-82
2024/03/18 07:10:24;;;;;;;13.40;7.25;;;;;;;15.61;63.75;101434.19;4893242;28;118840;-84
2024/03/18 07:12:51;;;;;;;12.55;7.35;;;;;;;15.63;63.78;101437.63;4884190;28;118201;-83
2024/03/18 07:15:17;;;;;;;15.48;7.88;;;;;;;15.66;63.83;101442.81;4884495;28;123215;-84
2024/03/18 07:17:44;;;;;;;15.35;7.53;;;;;;;15.68;63.78;101438.22;4884918;28;125473;-84
2024/03/18 07:20:12;;;;;;;14.50;7.47;;;;;;;15.69;63.75;101433.75;4884821;28;119537;-83
2024/03/18 07:22:42;;;;;;;16.60;7.82;;;;;;;15.70;63.88;101433.66;4896049;28;118505;-84
2024/03/18 07:25:10;;;;;;;15.05;7.47;;;;;;;15.72;63.67;101434.44;4881171;28;124902;-84
2024/03/18 07:27:38;;;;;;;15.77;7.60;;;;;;;15.73;63.42;101428.19;4882808;28;123941;-82
2024/03/18 07:30:08;;;;;;;13.35;7.40;;;;;;;15.74;63.37;101421.88;4896828;28;118523;-84
2024/03/18 07:32:34;;;;;;;11.90;6.85;;;;;;;15.76;63.53;101427.13;4897091;28;118426;-87
2024/03/18 07:35:01;;;;;;;12.23;6.90;;;;;;;15.76;63.20;101421.81;4905248;28;123586;-84
2024/03/18 07:37:28;;;;;;;14.20;7.30;;;;;;;15.77;63.71;101429.72;4897564;28;123504;-83
2024/03/18 07:39:55;;;;;;;14.95;7.80;;;;;;;15.79;63.29;101426.13;4908294;28;119405;-86
2024/03/18 07:42:21;;;;;;;16.20;7.70;;;;;;;15.78;63.41;101425.25;4891893;28;117745;-86
2024/03/18 07:44:47;;;;;;;12.63;7.45;;;;;;;15.79;63.33;101426.13;4885084;28;122245;-84
2024/03/18 07:47:14;;;;;;;17.17;7.13;;;;;;;15.79;62.85;101420.78;4897128;28;123041;-84
2024/03/18 07:49:40;;;;;;;14.57;7.63;;;;;;;15.77;63.07;101419.03;4905546;28;119979;-84
2024/03/18 07:52:07;;;;;;;12.02;6.88;;;;;;;15.76;63.21;101422.69;4903325;28;116484;-85
2024/03/18 07:54:33;;;;;;;15.43;7.45;;;;;;;15.76;63.18;101427.13;4867832;28;124852;-85
2024/03/18 07:57:06;;;;;;;13.52;7.25;;;;;;;15.76;63.09;101433.38;4882368;28;123395;-85
2024/03/18 07:59:32;;;;;;;14.98;7.63;;;;;;;15.74;63.00;101435.22;4889254;28;119172;-87
2024/03/18 08:01:59;;;;;;;13.23;7.57;;;;;;;15.74;62.94;101435.22;4898987;28;118471;-86
2024/03/18 08:04:28;;;;;;;13.85;7.75;;;;;;;15.73;62.91;101438.88;4888294;28;122051;-85
2024/03/18 08:06:54;;;;;;;16.35;7.28;;;;;;;15.73;62.90;101441.53;4897421;28;123852;-86
2024/03/18 08:09:20;;;;;;;14.85;7.22;;;;;;;15.73;63.15;101443.31;4908022;28;119437;-88
2024/03/18 08:11:48;;;;;;;17.25;8.50;;;;;;;15.74;63.11;101445.06;4903198;28;117820;-86
2024/03/18 08:14:15;;;;;;;18.38;7.72;;;;;;;15.73;63.04;101449.56;4891373;28;123892;-86
2024/03/18 08:16:42;;;;;;;15.38;8.25;;;;;;;15.72;62.90;101453.13;4906226;28;122351;-86
2024/03/18 08:19:08;;;;;;;17.95;8.05;;;;;;;15.72;63.02;101455.78;4890481;28;118688;-88
2024/03/18 08:21:34;;;;;;;19.13;7.90;;;;;;;15.70;62.97;101460.38;4880039;28;118310;-87
2024/03/18 08:24:02;;;;;;;17.90;8.88;;;;;;;15.70;63.10;101460.38;4897596;28;123965;-87
2024/03/18 08:26:30;;;;;;;19.38;8.30;;;;;;;15.71;62.73;101467.44;4890527;28;122266;-86
2024/03/18 08:28:57;;;;;;;17.73;8.90;;;;;;;15.69;62.80;101464.00;4902112;28;118173;-83
2024/03/18 08:31:23;;;;;;;17.13;8.43;;;;;;;15.67;62.95;101471.25;4887360;28;118461;-85
2024/03/18 08:33:49;;;;;;;20.63;8.80;;;;;;;15.66;62.73;101474.84;4889952;28;126153;-86
2024/03/18 08:36:15;;;;;;;18.73;8.38;;;;;;;15.65;62.77;101467.81;4888040;28;123325;-86
2024/03/18 08:38:42;;;;;;;17.35;8.13;;;;;;;15.62;62.85;101473.31;4908427;28;119383;-86
2024/03/18 08:41:10;;;;;;;20.63;8.85;;;;;;;15.62;62.85;101478.66;4902691;28;120257;-84
2024/03/18 08:43:36;;;;;;;21.23;9.25;;;;;;;15.62;62.83;101478.66;4909701;28;122654;-88
2024/03/18 08:46:06;;;;;;;21.20;8.77;;;;;;;15.60;62.68;101477.88;4902697;28;123243;-86
2024/03/18 08:48:36;;;;;;;19.90;9.50;;;;;;;15.59;62.55;101481.47;4899541;28;118659;-87
2024/03/18 08:51:04;;;;;;;24.98;9.85;;;;;;;15.57;62.80;101480.69;4893738;28;118638;-88
2024/03/18 08:53:31;;;;;;;21.00;9.57;;;;;;;15.54;62.73;101483.56;4873199;28;123529;-87
2024/03/18 08:55:57;;;;;;;23.38;9.30;;;;;;;15.53;62.72;101480.00;4902001;28;123861;-86
2024/03/18 08:58:23;;;;;;;24.38;9.32;;;;;;;15.52;62.61;101482.75;4884262;28;118870;-85
2024/03/18 09:00:54;;;;;;;22.67;9.85;;;;;;;15.52;62.82;101482.75;4912839;28;118274;-86
2024/03/18 09:03:21;;;;;;;26.98;9.88;;;;;;;15.53;62.79;101484.50;4900243;28;122863;-87
2024/03/18 09:05:54;;;;;;;25.15;10.48;;;;;;;15.54;62.70;101483.56;4912201;28;122634;-88
2024/03/18 09:08:21;;;;;;;23.08;9.50;;;;;;;15.54;62.38;101486.22;4893724;28;118112;-85
2024/03/18 09:10:48;;;;;;;24.02;9.82;;;;;;;15.56;62.41;101484.34;4895140;28;117221;-85
2024/03/18 09:13:15;;;;;;;23.13;9.32;;;;;;;15.56;62.72;101484.34;4906703;28;125429;-85
2024/03/18 09:15:42;;;;;;;20.50;8.95;;;;;;;15.57;62.67;101481.56;4875205;28;122973;-86
2024/03/18 09:18:08;;;;;;;25.40;10.32;;;;;;;15.61;62.79;101487.59;4875687;28;120833;-86
2024/03/18 09:20:34;;;;;;;25.27;10.25;;;;;;;15.65;62.76;101489.16;4891526;28;118412;-85
2024/03/18 09:23:01;;;;;;;23.95;9.45;;;;;;;15.66;62.62;101490.88;4906793;28;122865;-87
2024/03/18 09:25:27;;;;;;;25.40;9.55;;;;;;;15.67;62.72;101492.59;4892877;28;123153;-87
2024/03/18 09:27:53;;;;;;;25.77;9.20;;;;;;;15.67;62.49;101487.25;4893083;28;121145;-85
2024/03/18 09:30:21;;;;;;;22.92;9.57;;;;;;;15.70;62.65;101488.88;4887608;28;120172;-85
2024/03/18 09:32:47;;;;;;;24.30;9.43;;;;;;;15.71;62.52;101499.50;4897092;28;123717;-84
2024/03/18 09:35:14;;;;;;;17.05;8.05;;;;;;;15.73;62.71;101497.63;4894754;28;122731;-85
2024/03/18 09:37:41;;;;;;;19.40;8.60;;;;;;;15.77;62.58;101493.84;4886194;28;119665;-86
2024/03/18 09:40:08;;;;;;;21.60;8.98;;;;;;;15.83;62.58;101491.78;4903337;28;117949;-87
2024/03/18 09:42:36;;;;;;;20.85;8.43;;;;;;;15.86;62.52;101497.81;4889117;28;123039;-84
2024/03/18 09:45:02;;;;;;;18.55;7.53;;;;;;;15.88;62.46;101487.88;4888143;28;122478;-87
2024/03/18 09:47:31;;;;;;;21.75;8.73;;;;;;;15.92;62.44;101491.25;4863478;28;119068;-87
2024/03/18 09:50:00;;;;;;;17.75;8.13;;;;;;;15.97;62.77;101494.50;4889399;28;119038;-88
2024/03/18 09:52:34;;;;;;;19.63;8.77;;;;;;;16.03;62.27;101499.50;4893229;28;122640;-84
2024/03/18 09:55:01;;;;;;;18.80;8.20;;;;;;;16.10;62.42;101500.84;4911268;28;124608;-85
2024/03/18 09:57:29;;;;;;;22.73;8.98;;;;;;;16.13;62.13;101506.03;4892735;28;119429;-85
2024/03/18 09:59:55;;;;;;;25.15;11.25;;;;;;;16.18;62.26;101504.91;4875341;28;118298;-85
2024/03/18 10:02:22;;;;;;;17.98;9.60;;;;;;;16.22;62.07;101509.09;4898684;28;123830;-86
2024/03/18 10:04:48;;;;;;;23.48;11.00;;;;;;;16.23;61.90;101510.84;4904776;28;122392;-87
2024/03/18 10:07:17;;;;;;;20.83;10.27;;;;;;;16.21;61.69;101505.59;4878889;28;118813;-88
2024/03/18 10:09:46;;;;;;;19.70;10.23;;;;;;;16.20;61.77;101505.66;4901685;28;118785;-86
2024/03/18 10:12:14;;;;;;;20.75;9.88;;;;;;;16.18;61.70;101504.91;4890394;28;124146;-85
2024/03/18 10:14:41;;;;;;;18.73;10.18;;;;;;;16.20;61.59;101505.66;4886382;28;122652;-83
2024/03/18 10:17:16;;;;;;;20.42;10.00;;;;;;;16.22;61.96;101511.78;4887139;28;119055;-87
2024/03/18 10:19:42;;;;;;;22.90;10.30;;;;;;;16.25;61.70;101508.94;4906402;28;118913;-85
2024/03/18 10:22:13;;;;;;;19.70;9.90;;;;;;;16.28;61.78;101508.78;4904914;28;123089;-85
2024/03/18 10:24:43;;;;;;;20.42;10.25;;;;;;;16.32;61.95;101510.31;4887172;28;123005;-88
2024/03/18 10:27:11;;;;;;;18.35;10.00;;;;;;;16.36;61.70;101511.84;4909335;28;121032;-89
2024/03/18 10:29:39;;;;;;;18.83;10.15;;;;;;;16.37;61.47;101513.59;4908665;28;114689;-85
2024/03/18 10:32:25;;;;;;;18.48;9.20;;;;;;;16.38;61.42;101520.63;4889628;28;123475;-85
2024/03/18 10:34:52;;;;;;;21.17;10.88;;;;;;;16.38;61.46;101519.78;4891319;28;124122;-89
2024/03/18 10:37:22;;;;;;;20.67;10.73;;;;;;;16.39;61.54;101526.84;4907672;28;118147;-88
2024/03/18 10:40:00;;;;;;;20.92;10.80;;;;;;;16.42;61.49;101527.53;4886620;28;118337;-84
2024/03/18 10:42:34;;;;;;;18.75;10.15;;;;;;;16.43;61.38;101523.91;4890295;28;123597;-83
2024/03/18 10:45:14;;;;;;;17.60;9.57;;;;;;;16.43;61.32;101529.25;4906478;28;123299;-85
2024/03/18 10:47:40;;;;;;;21.33;10.40;;;;;;;16.43;61.08;101534.59;4884477;28;118801;-87
2024/03/18 10:50:14;;;;;;;20.95;10.27;;;;;;;16.43;61.24;101534.59;4890533;28;119189;-85
2024/03/18 10:52:41;;;;;;;18.50;10.10;;;;;;;16.46;61.31;101531.75;4886657;28;123093;-85
2024/03/18 10:55:18;;;;;;;18.13;9.57;;;;;;;16.48;61.44;101535.22;4892882;28;123270;-84
2024/03/18 10:57:47;;;;;;;19.15;8.73;;;;;;;16.52;61.31;101534.06;4896288;28;119870;-84
2024/03/18 11:00:18;;;;;;;16.83;9.20;;;;;;;16.53;60.73;101535.78;4904959;28;116662;-87
2024/03/18 11:02:59;;;;;;;19.00;9.32;;;;;;;16.56;61.15;101545.44;4874419;28;123377;-88
2024/03/18 11:05:34;;;;;;;22.50;9.68;;;;;;;16.58;60.96;101548.03;4909515;28;126555;-84
2024/03/18 11:08:05;;;;;;;19.80;9.52;;;;;;;16.58;60.97;101548.03;4895028;28;119637;-85